createdAt,value
2018-09-17T00:01:08.694Z,6.83
2018-09-17T00:03:37.257Z,6.10
2018-09-17T00:06:07.597Z,7.70
2018-09-17T00:08:38.331Z,7.10
2018-09-17T00:11:07.689Z,6.40
2018-09-17T00:13:37.233Z,7.10
2018-09-17T00:16:07.424Z,6.73
2018-09-17T00:18:36.676Z,6.90
2018-09-17T00:21:06.015Z,6.27
2018-09-17T00:23:36.334Z,10.20
2018-09-17T00:26:05.866Z,6.37
2018-09-17T00:28:36.171Z,5.73
2018-09-17T00:31:06.347Z,6.23
2018-09-17T00:33:36.296Z,7.13
2018-09-17T00:36:06.549Z,6.97
2018-09-17T00:38:36.843Z,6.60
2018-09-17T00:41:07.229Z,7.70
2018-09-17T00:43:36.345Z,6.30
2018-09-17T00:46:06.503Z,12.20
2018-09-17T00:48:36.436Z,6.10
2018-09-17T00:51:06.918Z,6.73
2018-09-17T00:53:36.838Z,6.60
2018-09-17T00:56:07.229Z,7.33
2018-09-17T00:58:35.990Z,5.60
2018-09-17T01:01:06.523Z,7.37
2018-09-17T01:03:36.395Z,9.50
2018-09-17T01:06:05.830Z,7.33
2018-09-17T01:08:35.213Z,6.93
2018-09-17T01:11:06.425Z,7.07
2018-09-17T01:13:36.658Z,7.13
2018-09-17T01:16:06.469Z,7.43
2018-09-17T01:18:36.059Z,6.40
2018-09-17T01:21:08.645Z,6.43
2018-09-17T01:23:37.802Z,7.00
2018-09-17T01:26:08.375Z,6.73
2018-09-17T01:28:38.182Z,7.87
2018-09-17T01:31:07.699Z,7.17
2018-09-17T01:33:39.011Z,7.33
2018-09-17T01:36:07.861Z,7.10
2018-09-17T01:38:37.864Z,8.30
2018-09-17T01:41:08.701Z,15.80
2018-09-17T01:43:38.578Z,7.30
2018-09-17T01:46:07.462Z,6.40
2018-09-17T01:48:37.287Z,7.73
2018-09-17T01:51:07.013Z,6.67
2018-09-17T01:53:37.466Z,7.30
2018-09-17T01:56:06.642Z,8.97
2018-09-17T01:58:36.603Z,8.90
2018-09-17T02:01:07.373Z,7.07
2018-09-17T02:03:37.430Z,7.50
2018-09-17T02:06:07.217Z,7.10
2018-09-17T02:08:37.847Z,6.50
2018-09-17T02:11:07.087Z,7.60
2018-09-17T02:13:38.066Z,7.77
2018-09-17T02:16:07.474Z,7.13
2018-09-17T02:18:37.649Z,9.00
2018-09-17T02:21:06.893Z,7.43
2018-09-17T02:23:36.437Z,7.83
2018-09-17T02:26:07.002Z,7.77
2018-09-17T02:28:38.670Z,7.47
2018-09-17T02:31:08.553Z,7.60
2018-09-17T02:33:37.189Z,7.57
2018-09-17T02:36:06.694Z,6.67
2018-09-17T02:38:37.351Z,8.53
2018-09-17T02:41:07.211Z,8.40
2018-09-17T02:43:37.292Z,7.10
2018-09-17T02:46:06.726Z,7.30
2018-09-17T02:48:38.091Z,9.53
2018-09-17T02:51:08.124Z,8.33
2018-09-17T02:53:37.431Z,8.23
2018-09-17T02:56:07.530Z,11.40
2018-09-17T02:58:37.034Z,6.73
2018-09-17T03:01:07.902Z,8.93
2018-09-17T03:03:37.193Z,7.70
2018-09-17T03:06:07.329Z,7.00
2018-09-17T03:08:38.680Z,8.93
2018-09-17T03:11:08.358Z,9.40
2018-09-17T03:13:37.617Z,8.93
2018-09-17T03:16:07.790Z,8.03
2018-09-17T03:18:47.394Z,8.73
2018-09-17T03:21:15.437Z,7.83
2018-09-17T03:23:43.558Z,9.30
2018-09-17T03:26:11.606Z,9.23
2018-09-17T03:28:39.680Z,8.00
2018-09-17T03:31:08.255Z,11.53
2018-09-17T03:33:37.625Z,8.80
2018-09-17T03:36:07.271Z,7.97
2018-09-17T03:38:47.459Z,9.07
2018-09-17T03:41:16.618Z,11.13
2018-09-17T03:43:46.159Z,7.73
2018-09-17T03:46:14.192Z,7.80
2018-09-17T03:48:42.795Z,8.83
2018-09-17T03:51:14.370Z,8.57
2018-09-17T03:53:44.328Z,8.13
2018-09-17T03:56:14.491Z,10.93
2018-09-17T03:58:43.658Z,10.87
2018-09-17T04:01:14.149Z,11.20
2018-09-17T04:03:45.653Z,9.63
2018-09-17T04:06:13.678Z,13.40
2018-09-17T04:08:44.637Z,10.73
2018-09-17T04:11:37.862Z,9.53
2018-09-17T04:14:46.827Z,11.63
2018-09-17T04:17:18.944Z,8.53
2018-09-17T04:20:27.973Z,10.37
2018-09-17T04:23:42.719Z,9.10
2018-09-17T04:26:12.535Z,8.07
2018-09-17T04:28:40.870Z,9.30
2018-09-17T04:31:10.077Z,9.00
2018-09-17T04:33:43.721Z,9.53
2018-09-17T04:36:12.389Z,9.27
2018-09-17T04:38:43.989Z,9.43
2018-09-17T04:41:12.653Z,9.63
2018-09-17T04:43:42.590Z,8.77
2018-09-17T04:46:13.325Z,10.03
2018-09-17T04:49:13.326Z,9.73
2018-09-17T04:51:43.901Z,9.03
2018-09-17T04:54:14.266Z,9.67
2018-09-17T04:56:43.572Z,9.90
2018-09-17T04:59:13.387Z,10.17
2018-09-17T05:01:43.741Z,10.17
2018-09-17T05:04:13.937Z,9.20
2018-09-17T05:06:44.010Z,10.93
2018-09-17T05:09:39.733Z,8.90
2018-09-17T05:12:15.150Z,8.13
2018-09-17T05:14:44.770Z,9.80
2018-09-17T05:17:13.753Z,14.63
2018-09-17T05:19:43.425Z,10.57
2018-09-17T05:22:13.354Z,9.97
2018-09-17T05:24:43.678Z,10.70
2018-09-17T05:27:13.638Z,15.60
2018-09-17T05:29:42.514Z,11.20
2018-09-17T05:32:13.519Z,12.90
2018-09-17T05:34:52.129Z,12.00
2018-09-17T05:37:20.086Z,10.60
2018-09-17T05:39:56.978Z,10.77
2018-09-17T05:42:44.378Z,10.23
2018-09-17T05:45:12.999Z,12.13
2018-09-17T05:47:42.044Z,12.63
2018-09-17T05:50:13.034Z,8.47
2018-09-17T05:52:42.962Z,8.43
2018-09-17T05:55:15.551Z,7.87
2018-09-17T05:57:43.618Z,8.50
2018-09-17T06:00:19.043Z,8.17
2018-09-17T06:02:47.135Z,8.43
2018-09-17T06:08:13.275Z,9.60
2018-09-17T06:10:42.705Z,8.03
2018-09-17T06:13:34.637Z,9.80
2018-09-17T06:16:11.728Z,9.70
2018-09-17T06:18:42.898Z,8.93
2018-09-17T06:21:12.974Z,12.80
2018-09-17T06:23:43.129Z,8.53
2018-09-17T06:26:12.338Z,12.10
2018-09-17T06:28:41.864Z,7.20
2018-09-17T06:31:12.029Z,8.87
2018-09-17T06:33:41.993Z,8.00
2018-09-17T06:36:12.747Z,6.90
2018-09-17T06:38:42.177Z,7.00
2018-09-17T06:41:12.197Z,7.00
2018-09-17T06:43:42.165Z,8.27
2018-09-17T06:46:13.009Z,7.50
2018-09-17T06:48:42.991Z,6.70
2018-09-17T06:51:11.393Z,8.87
2018-09-17T06:53:42.063Z,7.70
2018-09-17T06:56:10.625Z,6.97
2018-09-17T06:58:41.025Z,7.30
2018-09-17T07:01:10.849Z,5.87
2018-09-17T07:03:41.801Z,7.03
2018-09-17T07:06:11.447Z,6.70
2018-09-17T07:08:40.853Z,5.60
2018-09-17T07:11:12.749Z,6.40
2018-09-17T07:13:41.491Z,5.67
2018-09-17T07:16:15.226Z,5.70
2018-09-17T07:18:43.477Z,6.93
2018-09-17T07:21:12.322Z,5.33
2018-09-17T07:23:42.957Z,5.37
2018-09-17T07:26:11.521Z,5.97
2018-09-17T07:28:41.918Z,4.77
2018-09-17T07:31:12.199Z,6.33
2018-09-17T07:33:42.861Z,5.20
2018-09-17T07:36:11.412Z,4.37
2018-09-17T07:38:40.965Z,4.53
2018-09-17T07:41:10.905Z,5.37
2018-09-17T07:43:40.026Z,3.77
2018-09-17T07:46:11.567Z,3.60
2018-09-17T07:48:41.894Z,4.27
2018-09-17T07:51:16.508Z,3.87
2018-09-17T07:53:45.011Z,4.30
2018-09-17T07:56:13.044Z,4.47
2018-09-17T07:58:42.114Z,2.73
2018-09-17T08:01:10.417Z,3.50
2018-09-17T08:03:40.215Z,3.27
2018-09-17T08:06:11.825Z,3.23
2018-09-17T08:08:41.322Z,5.80
2018-09-17T08:11:14.542Z,3.70
2018-09-17T08:13:42.583Z,3.80
2018-09-17T08:16:11.395Z,3.77
2018-09-17T08:18:42.130Z,3.33
2018-09-17T08:21:11.184Z,7.10
2018-09-17T08:23:43.068Z,3.03
2018-09-17T08:26:11.365Z,2.20
2018-09-17T08:28:41.278Z,2.30
2018-09-17T08:31:12.964Z,3.33
2018-09-17T08:33:40.982Z,1.97
2018-09-17T08:36:12.060Z,2.30
2018-09-17T08:38:41.130Z,2.00
2018-09-17T08:41:13.154Z,2.30
2018-09-17T08:43:42.453Z,3.13
2018-09-17T08:46:11.206Z,1.73
2018-09-17T08:48:41.891Z,1.73
2018-09-17T08:51:11.293Z,2.30
2018-09-17T08:53:42.481Z,4.47
2018-09-17T08:56:16.075Z,2.60
2018-09-17T08:58:49.828Z,2.00
2018-09-17T09:01:24.342Z,3.17
2018-09-17T09:04:02.485Z,2.83
2018-09-17T09:06:42.070Z,1.70
2018-09-17T09:09:12.358Z,1.50
2018-09-17T09:11:47.278Z,1.50
2018-09-17T09:14:23.261Z,1.47
2018-09-17T09:17:09.645Z,2.60
2018-09-17T09:19:41.528Z,3.43
2018-09-17T09:22:12.125Z,1.20
2018-09-17T09:24:40.438Z,1.40
2018-09-17T09:27:11.760Z,1.20
2018-09-17T09:29:42.233Z,2.70
2018-09-17T09:32:10.582Z,2.83
2018-09-17T09:34:41.155Z,1.17
2018-09-17T09:37:09.604Z,1.57
2018-09-17T09:39:40.986Z,4.40
2018-09-17T09:42:10.961Z,3.47
2018-09-17T09:44:41.090Z,1.40
2018-09-17T09:47:10.613Z,7.13
2018-09-17T09:49:42.057Z,2.07
2018-09-17T09:52:11.230Z,3.03
2018-09-17T09:54:41.244Z,1.43
2018-09-17T09:57:09.581Z,1.63
2018-09-17T09:59:40.053Z,1.47
2018-09-17T10:02:16.087Z,3.10
2018-09-17T10:04:44.809Z,3.57
2018-09-17T10:07:12.846Z,3.50
2018-09-17T10:09:46.342Z,5.17
2018-09-17T10:12:20.169Z,1.97
2018-09-17T10:14:54.509Z,1.23
2018-09-17T10:17:29.023Z,3.43
2018-09-17T10:19:59.115Z,1.10
2018-09-17T10:22:29.532Z,1.50
2018-09-17T10:25:01.721Z,1.10
2018-09-17T10:27:33.265Z,2.17
2018-09-17T10:30:04.261Z,3.70
2018-09-17T10:32:35.678Z,4.17
2018-09-17T10:35:05.711Z,0.80
2018-09-17T10:37:36.734Z,1.30
2018-09-17T10:40:07.072Z,1.33
2018-09-17T10:42:36.246Z,1.30
2018-09-17T10:45:06.681Z,1.60
2018-09-17T10:47:36.687Z,4.43
2018-09-17T10:50:07.563Z,6.20
2018-09-17T10:52:36.629Z,4.00
2018-09-17T10:55:06.921Z,1.30
2018-09-17T10:57:37.735Z,1.20
2018-09-17T11:00:07.270Z,1.00
2018-09-17T11:02:37.481Z,1.20
2018-09-17T11:05:05.981Z,5.90
2018-09-17T11:07:35.934Z,1.20
2018-09-17T11:10:06.013Z,2.07
2018-09-17T11:12:36.682Z,2.00
2018-09-17T11:15:07.320Z,2.50
2018-09-17T11:17:37.174Z,2.30
2018-09-17T11:20:07.196Z,5.00
2018-09-17T11:22:38.354Z,1.77
2018-09-17T11:25:08.036Z,1.00
2018-09-17T11:27:37.478Z,1.23
2018-09-17T11:30:07.817Z,2.00
2018-09-17T11:32:37.745Z,2.00
2018-09-17T11:35:07.910Z,1.73
2018-09-17T11:37:38.889Z,0.97
2018-09-17T11:40:09.246Z,1.30
2018-09-17T11:42:37.559Z,1.13
2018-09-17T11:45:07.733Z,1.10
2018-09-17T11:47:37.671Z,2.00
2018-09-17T11:50:07.106Z,2.80
2018-09-17T11:52:37.365Z,4.30
2018-09-17T11:55:06.721Z,2.20
2018-09-17T11:57:37.187Z,2.00
2018-09-17T12:00:06.704Z,1.03
2018-09-17T12:02:37.882Z,1.33
2018-09-17T12:05:09.388Z,3.63
2018-09-17T12:07:41.186Z,1.10
2018-09-17T12:10:10.115Z,1.00
2018-09-17T12:12:39.438Z,4.17
2018-09-17T12:15:08.852Z,2.20
2018-09-17T12:17:38.648Z,1.40
2018-09-17T12:20:08.594Z,2.10
2018-09-17T12:22:38.717Z,1.27
2018-09-17T12:25:08.076Z,1.07
2018-09-17T12:27:37.111Z,0.80
2018-09-17T12:30:06.466Z,2.40
2018-09-17T12:32:35.698Z,0.80
2018-09-17T12:35:06.288Z,1.10
2018-09-17T12:37:36.722Z,1.13
2018-09-17T12:40:06.960Z,6.40
2018-09-17T12:42:37.498Z,2.00
2018-09-17T12:45:08.520Z,1.20
2018-09-17T12:47:38.082Z,1.47
2018-09-17T12:50:08.242Z,1.73
2018-09-17T12:52:37.760Z,1.23
2018-09-17T12:55:08.582Z,2.83
2018-09-17T12:57:38.520Z,1.67
2018-09-17T13:00:07.274Z,3.40
2018-09-17T13:02:37.106Z,1.53
2018-09-17T13:05:06.776Z,3.53
2018-09-17T13:07:36.260Z,5.27
2018-09-17T13:10:06.217Z,1.20
2018-09-17T13:12:36.224Z,6.03
2018-09-17T13:15:07.225Z,1.00
2018-09-17T13:17:36.764Z,1.00
2018-09-17T13:20:07.407Z,1.37
2018-09-17T13:22:37.333Z,1.60
2018-09-17T13:25:06.580Z,2.87
2018-09-17T13:27:36.393Z,2.23
2018-09-17T13:30:06.307Z,1.77
2018-09-17T13:32:36.364Z,1.20
2018-09-17T13:35:07.809Z,1.37
2018-09-17T13:37:37.718Z,1.23
2018-09-17T13:40:07.523Z,1.03
2018-09-17T13:42:37.615Z,0.90
2018-09-17T13:45:08.750Z,2.23
2018-09-17T13:47:38.316Z,3.13
2018-09-17T13:50:08.377Z,2.10
2018-09-17T13:52:38.622Z,2.23
2018-09-17T13:55:08.050Z,1.43
2018-09-17T13:57:37.654Z,1.30
2018-09-17T14:00:07.866Z,2.00
2018-09-17T14:02:38.558Z,1.27
2018-09-17T14:05:08.131Z,2.00
2018-09-17T14:07:37.030Z,1.90
2018-09-17T14:10:06.960Z,3.23
2018-09-17T14:12:37.855Z,3.53
2018-09-17T14:15:08.601Z,2.43
2018-09-17T14:17:37.876Z,3.30
2018-09-17T14:20:08.334Z,2.80
2018-09-17T14:22:39.181Z,1.53
2018-09-17T14:25:09.122Z,11.67
2018-09-17T14:27:38.318Z,2.00
2018-09-17T14:30:07.563Z,2.10
2018-09-17T14:32:42.198Z,3.60
2018-09-17T14:35:10.144Z,2.40
2018-09-17T14:37:38.524Z,3.00
2018-09-17T14:40:07.814Z,3.03
2018-09-17T14:42:38.122Z,2.07
2018-09-17T14:45:08.576Z,1.23
2018-09-17T14:47:38.097Z,1.37
2018-09-17T14:50:08.462Z,2.20
2018-09-17T14:52:37.750Z,1.60
2018-09-17T14:55:06.282Z,1.73
2018-09-17T14:57:37.501Z,2.30
2018-09-17T15:00:07.195Z,1.40
2018-09-17T15:02:38.046Z,1.53
2018-09-17T15:05:07.735Z,1.10
2018-09-17T15:07:37.960Z,5.40
2018-09-17T15:10:07.696Z,2.20
2018-09-17T15:12:37.377Z,2.50
2018-09-17T15:15:06.998Z,2.23
2018-09-17T15:17:37.123Z,3.63
2018-09-17T15:20:07.831Z,2.50
2018-09-17T15:22:37.209Z,1.53
2018-09-17T15:25:07.788Z,1.30
2018-09-17T15:27:38.660Z,1.20
2018-09-17T15:30:08.094Z,2.80
2018-09-17T15:32:38.532Z,2.57
2018-09-17T15:35:07.782Z,2.17
2018-09-17T15:37:37.281Z,1.40
2018-09-17T15:40:07.786Z,1.87
2018-09-17T15:42:38.262Z,1.30
2018-09-17T15:45:07.570Z,3.00
2018-09-17T15:47:37.414Z,3.60
2018-09-17T15:50:08.638Z,1.33
2018-09-17T15:52:38.798Z,1.73
2018-09-17T15:55:07.862Z,1.63
2018-09-17T15:57:37.674Z,3.17
2018-09-17T16:00:08.575Z,2.00
2018-09-17T16:02:38.019Z,1.47
2018-09-17T16:05:08.437Z,2.43
2018-09-17T16:07:38.134Z,1.20
2018-09-17T16:10:08.153Z,3.73
2018-09-17T16:12:38.113Z,3.43
2018-09-17T16:15:08.469Z,9.70
2018-09-17T16:17:37.982Z,3.03
2018-09-17T16:20:07.923Z,1.60
2018-09-17T16:22:38.035Z,5.03
2018-09-17T16:25:08.249Z,4.10
2018-09-17T16:27:38.351Z,6.60
2018-09-17T16:30:09.963Z,1.57
2018-09-17T16:32:39.587Z,7.23
2018-09-17T16:35:08.621Z,8.27
2018-09-17T16:37:38.233Z,3.80
2018-09-17T16:40:07.964Z,1.43
2018-09-17T16:42:38.410Z,1.63
2018-09-17T16:45:08.837Z,2.17
2018-09-17T16:47:38.671Z,1.50
2018-09-17T16:50:07.946Z,3.10
2018-09-17T16:52:38.190Z,3.13
2018-09-17T16:55:09.066Z,5.67
2018-09-17T16:57:37.971Z,3.40
2018-09-17T17:00:07.797Z,5.13
2018-09-17T17:02:37.933Z,6.70
2018-09-17T17:05:06.946Z,4.03
2018-09-17T17:07:37.573Z,4.43
2018-09-17T17:10:07.369Z,7.27
2018-09-17T17:12:38.225Z,9.33
2018-09-17T17:15:07.685Z,4.90
2018-09-17T17:17:38.791Z,22.00
2018-09-17T17:20:06.822Z,13.60
2018-09-17T17:22:37.174Z,13.33
2018-09-17T17:25:05.505Z,10.67
2018-09-17T17:27:35.441Z,20.03
2018-09-17T17:30:05.626Z,16.23
2018-09-17T17:32:35.399Z,8.57
2018-09-17T17:35:06.585Z,4.97
2018-09-17T17:37:35.661Z,15.73
2018-09-17T17:40:05.756Z,7.60
2018-09-17T17:42:36.216Z,3.13
2018-09-17T17:45:08.293Z,4.40
2018-09-17T17:47:36.935Z,5.70
2018-09-17T17:50:05.189Z,6.43
2018-09-17T17:52:34.975Z,6.97
2018-09-17T17:55:05.150Z,5.97
2018-09-17T17:57:35.790Z,4.30
2018-09-17T18:00:06.806Z,2.93
2018-09-17T18:02:37.947Z,2.70
2018-09-17T18:05:08.662Z,3.60
2018-09-17T18:07:38.728Z,4.00
2018-09-17T18:10:07.986Z,4.43
2018-09-17T18:12:38.234Z,6.17
2018-09-17T18:15:07.883Z,4.40
2018-09-17T18:17:37.254Z,4.30
2018-09-17T18:20:08.961Z,6.10
2018-09-17T18:22:38.511Z,5.50
2018-09-17T18:25:10.194Z,3.30
2018-09-17T18:27:40.398Z,5.03
2018-09-17T18:30:11.706Z,7.20
2018-09-17T18:32:40.422Z,3.47
2018-09-17T18:35:11.229Z,5.30
2018-09-17T18:37:40.273Z,2.77
2018-09-17T18:40:09.214Z,7.90
2018-09-17T18:42:38.370Z,4.07
2018-09-17T18:45:07.909Z,7.93
2018-09-17T18:47:38.793Z,3.73
2018-09-17T18:50:08.513Z,8.93
2018-09-17T18:52:38.679Z,3.30
2018-09-17T18:55:09.427Z,3.83
2018-09-17T18:57:39.669Z,9.03
2018-09-17T19:00:09.064Z,5.40
2018-09-17T19:02:38.885Z,4.53
2018-09-17T19:05:08.903Z,3.70
2018-09-17T19:07:39.915Z,3.77
2018-09-17T19:10:10.515Z,6.20
2018-09-17T19:12:39.002Z,6.80
2018-09-17T19:15:13.398Z,8.93
2018-09-17T19:17:42.477Z,3.67
2018-09-17T19:20:11.609Z,6.37
2018-09-17T19:22:45.214Z,3.20
2018-09-17T19:25:14.329Z,4.20
2018-09-17T19:27:47.902Z,6.10
2018-09-17T19:30:16.423Z,4.27
2018-09-17T19:32:44.742Z,4.30
2018-09-17T19:35:12.966Z,6.13
2018-09-17T19:37:46.646Z,3.40
2018-09-17T19:40:20.594Z,6.67
2018-09-17T19:42:49.511Z,8.60
2018-09-17T19:45:23.748Z,8.20
2018-09-17T19:47:54.233Z,4.67
2018-09-17T19:50:29.266Z,4.83
2018-09-17T19:53:01.162Z,6.13
2018-09-17T19:55:35.499Z,4.33
2018-09-17T19:58:10.163Z,7.63
2018-09-17T20:00:38.640Z,5.97
2018-09-17T20:03:09.742Z,5.77
2018-09-17T20:05:43.822Z,6.03
2018-09-17T20:08:11.869Z,5.53
2018-09-17T20:10:39.925Z,6.77
2018-09-17T20:13:10.022Z,4.27
2018-09-17T20:15:38.950Z,4.70
2018-09-17T20:18:09.258Z,3.77
2018-09-17T20:20:39.744Z,5.60
2018-09-17T20:23:08.796Z,4.13
2018-09-17T20:25:38.045Z,5.97
2018-09-17T20:28:07.533Z,5.67
2018-09-17T20:30:37.374Z,4.73
2018-09-17T20:33:07.006Z,4.17
2018-09-17T20:35:37.727Z,5.50
2018-09-17T20:38:07.818Z,7.50
2018-09-17T20:40:38.282Z,5.30
2018-09-17T20:43:08.111Z,6.97
2018-09-17T20:45:38.507Z,5.83
2018-09-17T20:48:08.489Z,5.93
2018-09-17T20:50:38.878Z,3.97
2018-09-17T20:53:08.916Z,6.50
2018-09-17T20:55:38.399Z,6.40
2018-09-17T20:58:09.051Z,5.60
2018-09-17T21:00:39.363Z,8.17
2018-09-17T21:03:09.300Z,6.17
2018-09-17T21:05:38.901Z,8.27
2018-09-17T21:08:09.930Z,4.73
2018-09-17T21:10:39.358Z,5.37
2018-09-17T21:13:10.714Z,9.63
2018-09-17T21:15:39.878Z,7.43
2018-09-17T21:18:10.123Z,5.00
2018-09-17T21:20:39.558Z,4.80
2018-09-17T21:23:09.335Z,7.03
2018-09-17T21:25:38.306Z,5.50
2018-09-17T21:28:07.341Z,8.30
2018-09-17T21:30:37.272Z,5.30
2018-09-17T21:33:07.758Z,6.10
2018-09-17T21:35:37.814Z,9.20
2018-09-17T21:38:07.825Z,5.93
2018-09-17T21:40:38.236Z,10.30
2018-09-17T21:43:08.846Z,5.60
2018-09-17T21:45:38.406Z,5.87
2018-09-17T21:48:08.748Z,4.87
2018-09-17T21:50:38.963Z,5.90
2018-09-17T21:53:09.018Z,5.53
2018-09-17T21:55:38.953Z,5.80
2018-09-17T21:58:08.022Z,5.83
2018-09-17T22:00:42.478Z,5.07
2018-09-17T22:03:10.498Z,6.30
2018-09-17T22:05:38.794Z,6.03
2018-09-17T22:08:08.101Z,5.87
2018-09-17T22:10:39.333Z,7.07
2018-09-17T22:13:08.981Z,5.60
2018-09-17T22:15:38.422Z,5.93
2018-09-17T22:18:08.349Z,8.73
2018-09-17T22:20:38.922Z,6.37
2018-09-17T22:23:09.081Z,6.73
2018-09-17T22:25:39.853Z,6.50
2018-09-17T22:28:08.785Z,5.67
2018-09-17T22:30:38.681Z,5.43
2018-09-17T22:33:08.002Z,6.57
2018-09-17T22:35:38.676Z,5.37
2018-09-17T22:38:08.926Z,8.17
2018-09-17T22:40:39.247Z,5.63
2018-09-17T22:43:08.393Z,6.00
2018-09-17T22:45:37.844Z,6.10
2018-09-17T22:48:08.038Z,6.10
2018-09-17T22:50:39.109Z,5.80
2018-09-17T22:53:09.482Z,4.90
2018-09-17T22:55:40.254Z,5.17
2018-09-17T22:58:10.025Z,5.73
2018-09-17T23:00:39.538Z,5.90
2018-09-17T23:03:09.110Z,5.50
2018-09-17T23:05:39.533Z,5.80
2018-09-17T23:08:09.101Z,4.50
2018-09-17T23:10:39.502Z,4.47
2018-09-17T23:13:08.365Z,5.47
2018-09-17T23:15:38.654Z,5.40
2018-09-17T23:18:08.959Z,5.20
2018-09-17T23:20:39.109Z,4.87
2018-09-17T23:23:09.060Z,6.93
2018-09-17T23:25:38.061Z,5.07
2018-09-17T23:28:06.950Z,5.60
2018-09-17T23:30:37.077Z,6.47
2018-09-17T23:33:07.149Z,4.60
2018-09-17T23:35:38.641Z,5.03
2018-09-17T23:38:08.528Z,8.53
2018-09-17T23:40:38.318Z,5.33
2018-09-17T23:43:07.808Z,6.43
2018-09-17T23:45:37.679Z,7.90
2018-09-17T23:48:07.981Z,8.97
2018-09-17T23:50:38.059Z,5.40
2018-09-17T23:53:08.020Z,7.60
2018-09-17T23:55:38.639Z,5.40
2018-09-17T23:58:07.702Z,6.90
